Brethren, Michigan
Current Conditions -  °F | °C
As of 9:55 PM on Tuesday 25 Nov 2014 (Local Time) from KMBL Reporting Station
Overcast Overcast  
Wind Chill: 21°   Ceiling: 2200
Heat Index: 27°   Visibility: 10mi
Dew Point: 19°   Wind: 5mph
Humidity: 74%   Direction: 180°S
Pressure: 30.14"   Gusts: NA
Location:  44.3°N, 86.02°W
Report Text: KMBL 260255Z AUTO 18004KT 10SM OVC022 M03/M07 A3014 RMK AO1 52010
Loading
Personal Weather Stations






























Interactive Weather Map New forecast layout! Learn more

10-Day Weather Forecast

Advertisements
Track Severe Weather on mobile